createdAt,value
2022-09-23T00:01:34.573Z,4.90
2022-09-23T00:06:37.105Z,5.40
2022-09-23T00:11:39.905Z,6.07
2022-09-23T00:16:42.507Z,6.38
2022-09-23T00:21:45.012Z,4.00
2022-09-23T00:26:47.434Z,4.60
2022-09-23T00:31:49.961Z,4.38
2022-09-23T00:36:54.806Z,4.63
2022-09-23T00:41:57.434Z,4.57
2022-09-23T00:46:59.899Z,5.32
2022-09-23T00:52:08.833Z,4.80
2022-09-23T00:57:12.123Z,4.38
2022-09-23T01:02:18.262Z,4.63
2022-09-23T01:07:21.927Z,5.00
2022-09-23T01:12:57.465Z,6.43
2022-09-23T01:18:12.313Z,7.43
2022-09-23T01:23:22.611Z,44.65
2022-09-23T01:28:52.346Z,15.70
2022-09-23T01:34:06.255Z,10.57
2022-09-23T01:39:23.697Z,8.07
2022-09-23T01:44:54.287Z,7.10
2022-09-23T01:50:36.244Z,8.10
2022-09-23T01:55:41.568Z,7.30
2022-09-23T02:00:52.845Z,8.77
2022-09-23T02:06:01.712Z,8.10
2022-09-23T02:11:13.884Z,7.90
2022-09-23T02:16:27.955Z,8.27
2022-09-23T02:21:35.361Z,4.87
2022-09-23T02:26:55.405Z,6.43
2022-09-23T02:32:08.404Z,6.72
2022-09-23T02:37:28.889Z,4.63
2022-09-23T02:42:44.408Z,4.60
2022-09-23T02:47:49.819Z,4.97
2022-09-23T02:52:52.285Z,5.30
2022-09-23T02:57:55.182Z,5.53
2022-09-23T03:02:57.786Z,5.27
2022-09-23T03:08:19.655Z,6.38
2022-09-23T03:13:40.693Z,5.60
2022-09-23T03:18:51.931Z,4.75
2022-09-23T03:23:55.075Z,6.32
2022-09-23T03:28:57.705Z,6.07
2022-09-23T03:34:03.622Z,4.32
2022-09-23T03:39:40.865Z,5.13
2022-09-23T03:44:47.588Z,6.15
2022-09-23T03:49:51.969Z,5.50
2022-09-23T03:54:54.979Z,5.60
2022-09-23T03:59:57.435Z,4.97
2022-09-23T04:04:59.886Z,5.27
2022-09-23T04:10:02.344Z,5.43
2022-09-23T04:15:05.516Z,4.32
2022-09-23T04:20:08.270Z,5.07
2022-09-23T04:25:10.749Z,5.85
2022-09-23T04:30:13.890Z,6.43
2022-09-23T04:35:19.046Z,6.25
2022-09-23T04:40:22.278Z,4.75
2022-09-23T04:45:24.815Z,5.57
2022-09-23T04:50:27.605Z,7.40
2022-09-23T04:55:30.281Z,7.93
2022-09-23T05:00:33.645Z,6.25
2022-09-23T05:05:36.137Z,7.22
2022-09-23T05:10:38.615Z,7.80
2022-09-23T05:15:41.129Z,6.80
2022-09-23T05:20:43.568Z,7.57
2022-09-23T05:25:46.336Z,6.75
2022-09-23T05:30:50.418Z,8.02
2022-09-23T05:35:53.491Z,7.83
2022-09-23T05:41:00.328Z,9.32
2022-09-23T05:46:23.404Z,7.57
2022-09-23T05:51:30.739Z,9.10
2022-09-23T05:56:34.465Z,8.27
2022-09-23T06:01:38.633Z,7.93
2022-09-23T06:06:43.470Z,8.80
2022-09-23T06:11:46.876Z,7.23
2022-09-23T06:16:49.367Z,7.85
2022-09-23T06:21:51.928Z,9.15
2022-09-23T06:26:55.291Z,9.60
2022-09-23T06:31:59.777Z,9.30
2022-09-23T06:37:13.626Z,9.10
2022-09-23T06:42:19.536Z,9.95
2022-09-23T06:47:22.165Z,10.32
2022-09-23T06:52:25.112Z,8.80
2022-09-23T06:57:30.932Z,9.43
2022-09-23T07:02:33.491Z,9.07
2022-09-23T07:07:37.491Z,8.38
2022-09-23T07:44:53.147Z,9.60
2022-09-23T07:49:55.699Z,9.57
2022-09-23T07:54:58.186Z,9.90
2022-09-23T08:00:02.385Z,12.95
2022-09-23T08:05:05.859Z,11.80
2022-09-23T08:10:08.716Z,10.45
2022-09-23T08:15:11.252Z,9.57
2022-09-23T08:20:33.627Z,9.00
2022-09-23T08:25:36.067Z,6.80
2022-09-23T08:30:40.001Z,7.10
2022-09-23T08:35:42.540Z,5.93
2022-09-23T08:40:47.504Z,5.65
2022-09-23T08:45:51.218Z,5.03
2022-09-23T08:50:59.699Z,4.83
2022-09-23T08:56:07.486Z,4.55
2022-09-23T09:01:19.780Z,5.30
2022-09-23T09:06:41.899Z,4.37
2022-09-23T09:11:58.181Z,4.63
2022-09-23T09:17:04.827Z,4.57
2022-09-23T09:22:16.946Z,4.47
2022-09-23T09:27:19.690Z,4.30
2022-09-23T09:32:46.329Z,3.60
2022-09-23T09:37:48.798Z,3.73
2022-09-23T09:42:51.421Z,4.07
2022-09-23T09:48:08.458Z,3.55
2022-09-23T09:53:35.868Z,3.87
2022-09-23T09:58:48.967Z,4.00
2022-09-23T10:03:57.024Z,4.13
2022-09-23T10:09:06.808Z,3.57
2022-09-23T10:14:19.175Z,3.95
2022-09-23T10:19:27.538Z,3.23
2022-09-23T10:24:32.309Z,3.50
2022-09-23T10:30:01.114Z,3.13
2022-09-23T10:35:09.751Z,3.55
2022-09-23T10:40:44.943Z,2.63
2022-09-23T10:46:09.345Z,2.30
2022-09-23T10:51:26.047Z,1.73
2022-09-23T10:56:38.314Z,1.90
2022-09-23T11:02:09.168Z,2.15
2022-09-23T11:07:20.783Z,2.40
2022-09-23T11:12:49.160Z,2.33
2022-09-23T11:17:51.584Z,2.33
2022-09-23T11:23:07.227Z,2.50
2022-09-23T11:28:19.958Z,2.43
2022-09-23T11:33:34.224Z,1.90
2022-09-23T11:38:46.769Z,1.77
2022-09-23T11:44:04.329Z,1.73
2022-09-23T11:49:36.285Z,2.13
2022-09-23T11:54:51.740Z,1.60
2022-09-23T12:00:06.994Z,2.00
2022-09-23T12:05:20.281Z,2.00
2022-09-23T12:10:29.233Z,1.70
2022-09-23T12:15:58.677Z,1.40
2022-09-23T12:21:50.292Z,1.50
2022-09-23T12:26:58.316Z,2.28
2022-09-23T12:32:01.227Z,2.13
2022-09-23T12:37:05.475Z,1.70
2022-09-23T12:42:30.959Z,1.27
2022-09-23T12:47:39.726Z,1.80
2022-09-23T12:52:42.210Z,1.70
2022-09-23T12:57:44.654Z,1.60
2022-09-23T13:03:08.402Z,1.30
2022-09-23T13:08:22.577Z,1.75
2022-09-23T13:13:31.763Z,1.63
2022-09-23T13:18:54.689Z,2.07
2022-09-23T13:24:31.234Z,1.90
2022-09-23T13:29:54.937Z,1.90
2022-09-23T13:35:01.545Z,2.00
2022-09-23T13:40:24.901Z,1.98
2022-09-23T13:45:28.736Z,1.93
2022-09-23T13:50:34.862Z,2.17
2022-09-23T13:55:39.311Z,2.22
2022-09-23T14:00:41.855Z,2.43
2022-09-23T14:05:44.403Z,2.47
2022-09-23T14:10:47.691Z,1.90
2022-09-23T14:15:51.174Z,2.10
2022-09-23T14:20:53.790Z,2.57
2022-09-23T14:25:56.713Z,2.70
2022-09-23T14:31:00.605Z,3.83
2022-09-23T14:36:08.115Z,4.30
2022-09-23T14:41:27.174Z,2.08
2022-09-23T14:46:35.080Z,1.77
2022-09-23T14:51:43.456Z,1.87
2022-09-23T14:56:45.928Z,2.17
2022-09-23T15:01:48.412Z,3.10
2022-09-23T15:07:09.520Z,2.60
2022-09-23T15:12:17.238Z,2.13
2022-09-23T15:17:39.898Z,2.20
2022-09-23T15:22:48.390Z,2.40
2022-09-23T15:28:27.293Z,2.53
2022-09-23T15:33:29.973Z,2.17
2022-09-23T15:38:33.009Z,2.17
2022-09-23T15:43:35.519Z,2.45
2022-09-23T15:48:44.154Z,2.80
2022-09-23T15:53:47.825Z,2.50
2022-09-23T15:58:50.609Z,2.95
2022-09-23T16:03:53.053Z,2.73
2022-09-23T16:08:56.747Z,3.53
2022-09-23T16:14:00.730Z,3.40
2022-09-23T16:19:03.334Z,3.30
2022-09-23T16:24:06.431Z,3.10
2022-09-23T16:29:11.301Z,10.88
2022-09-23T16:34:13.718Z,17.50
2022-09-23T16:39:16.212Z,12.87
2022-09-23T16:44:18.657Z,16.52
2022-09-23T16:49:21.356Z,19.13
2022-09-23T16:54:25.154Z,32.03
2022-09-23T16:59:48.639Z,20.27
2022-09-23T17:04:51.059Z,10.37
2022-09-23T17:09:53.545Z,9.63
2022-09-23T17:14:56.116Z,10.03
2022-09-23T17:19:58.546Z,7.22
2022-09-23T17:25:02.981Z,11.63
2022-09-23T17:30:06.400Z,14.43
2022-09-23T17:35:09.987Z,20.05
2022-09-23T17:40:14.631Z,10.38
2022-09-23T17:45:17.190Z,7.80
2022-09-23T17:50:19.921Z,10.07
2022-09-23T17:55:22.421Z,17.30
2022-09-23T18:00:25.260Z,13.93
2022-09-23T18:05:27.680Z,9.43
2022-09-23T18:10:31.509Z,6.00
2022-09-23T18:15:40.332Z,5.03
2022-09-23T18:20:44.196Z,4.67
2022-09-23T18:25:46.656Z,4.63
2022-09-23T18:30:56.594Z,3.92
2022-09-23T18:36:02.728Z,3.63
2022-09-23T18:41:05.334Z,3.90
2022-09-23T18:46:13.490Z,3.87
2022-09-23T18:51:17.015Z,5.57
2022-09-23T18:56:22.489Z,5.50
2022-09-23T19:01:25.172Z,4.63
2022-09-23T19:06:27.831Z,4.20
2022-09-23T19:11:30.237Z,3.60
2022-09-23T19:16:33.431Z,3.90
2022-09-23T19:21:36.426Z,3.72
2022-09-23T19:26:40.651Z,3.53
2022-09-23T19:31:44.138Z,3.08
2022-09-23T19:36:47.989Z,3.07
2022-09-23T19:41:52.355Z,6.18
2022-09-23T19:46:57.113Z,8.52
2022-09-23T19:52:00.421Z,11.97
2022-09-23T19:57:02.942Z,12.85
2022-09-23T20:02:06.663Z,10.03
2022-09-23T20:07:10.031Z,10.98
2022-09-23T20:12:12.968Z,5.28
2022-09-23T20:17:17.491Z,5.40
2022-09-23T20:22:29.584Z,6.15
2022-09-23T20:27:37.571Z,5.20
2022-09-23T20:32:44.493Z,3.80
2022-09-23T20:37:47.365Z,4.07
2022-09-23T20:42:49.905Z,4.43
2022-09-23T20:47:52.393Z,4.53
2022-09-23T20:52:57.695Z,3.70
2022-09-23T20:58:04.572Z,5.57
2022-09-23T21:03:07.067Z,5.40
2022-09-23T21:08:09.847Z,1.67
2022-09-23T21:13:12.265Z,3.70
2022-09-23T21:18:18.121Z,4.67
2022-09-23T21:23:30.570Z,5.10
2022-09-23T21:28:37.744Z,4.88
2022-09-23T21:33:40.226Z,5.33
2022-09-23T21:38:42.681Z,4.80
2022-09-23T21:43:45.673Z,3.80
2022-09-23T21:48:58.790Z,4.20
2022-09-23T21:54:03.753Z,3.90
2022-09-23T21:59:09.284Z,4.30
2022-09-23T22:04:17.787Z,5.03
2022-09-23T22:09:21.667Z,5.80
2022-09-23T22:14:26.410Z,5.80
2022-09-23T22:19:35.540Z,6.03
2022-09-23T22:24:38.266Z,6.27
2022-09-23T22:29:59.238Z,5.43
2022-09-23T22:35:01.683Z,2.67
2022-09-23T22:40:10.565Z,4.20
2022-09-23T22:45:14.109Z,6.85
2022-09-23T22:50:16.849Z,5.93
2022-09-23T22:55:19.476Z,6.72
2022-09-23T23:00:22.248Z,7.13
2022-09-23T23:05:24.862Z,3.53
2022-09-23T23:10:27.656Z,5.80
2022-09-23T23:15:32.491Z,4.63
2022-09-23T23:20:35.126Z,6.65
2022-09-23T23:25:37.620Z,5.27
2022-09-23T23:30:40.071Z,3.78
2022-09-23T23:35:51.681Z,3.80
2022-09-23T23:40:55.525Z,3.83
2022-09-23T23:45:58.154Z,4.28
2022-09-23T23:51:01.774Z,3.73
2022-09-23T23:56:06.349Z,4.53
